createdAt,value
2023-03-20T00:02:06.598Z,9.40
2023-03-20T00:04:33.481Z,9.40
2023-03-20T00:07:03.707Z,9.40
2023-03-20T00:09:31.394Z,9.30
2023-03-20T00:12:00.310Z,9.30
2023-03-20T00:14:27.686Z,9.30
2023-03-20T00:16:57.198Z,9.30
2023-03-20T00:19:29.267Z,9.30
2023-03-20T00:22:00.859Z,9.30
2023-03-20T00:24:30.262Z,9.30
2023-03-20T00:26:57.295Z,9.20
2023-03-20T00:29:27.541Z,9.20
2023-03-20T00:31:55.002Z,9.20
2023-03-20T00:34:25.624Z,9.20
2023-03-20T00:36:53.534Z,9.20
2023-03-20T00:39:20.578Z,9.20
2023-03-20T00:41:56.578Z,9.20
2023-03-20T00:44:34.279Z,9.20
2023-03-20T00:47:04.485Z,9.20
2023-03-20T00:49:35.804Z,9.10
2023-03-20T00:52:03.625Z,9.20
2023-03-20T00:54:30.992Z,9.20
2023-03-20T00:56:57.606Z,9.30
2023-03-20T00:59:28.816Z,9.30
2023-03-20T01:01:56.477Z,9.30
2023-03-20T01:04:23.223Z,9.40
2023-03-20T01:06:52.585Z,9.30
2023-03-20T01:09:19.308Z,9.30
2023-03-20T01:11:46.950Z,9.30
2023-03-20T01:14:15.970Z,9.30
2023-03-20T01:16:43.575Z,9.40
2023-03-20T01:19:14.636Z,9.40
2023-03-20T01:21:43.850Z,9.40
2023-03-20T01:24:12.807Z,9.40
2023-03-20T01:26:44.674Z,9.40
2023-03-20T01:29:18.730Z,9.40
2023-03-20T01:31:45.762Z,9.40
2023-03-20T01:34:12.668Z,9.40
2023-03-20T01:36:40.018Z,9.40
2023-03-20T01:39:10.087Z,9.40
2023-03-20T01:41:40.609Z,9.50
2023-03-20T01:44:24.897Z,9.40
2023-03-20T01:46:55.518Z,9.40
2023-03-20T01:49:22.179Z,9.40
2023-03-20T01:51:52.367Z,9.40
2023-03-20T01:54:26.796Z,9.40
2023-03-20T01:57:04.295Z,9.40
2023-03-20T01:59:41.023Z,9.30
2023-03-20T02:02:10.568Z,9.30
2023-03-20T02:04:42.893Z,9.30
2023-03-20T02:07:11.356Z,9.30
2023-03-20T02:09:40.223Z,9.30
2023-03-20T02:12:10.240Z,9.30
2023-03-20T02:14:37.947Z,9.20
2023-03-20T02:17:08.628Z,9.20
2023-03-20T02:19:59.948Z,9.20
2023-03-20T02:22:51.025Z,9.30
2023-03-20T02:25:29.010Z,9.40
2023-03-20T02:28:29.262Z,9.40
2023-03-20T02:31:22.033Z,9.50
2023-03-20T02:34:10.512Z,9.50
2023-03-20T02:36:55.340Z,9.50
2023-03-20T02:39:31.724Z,9.50
2023-03-20T02:42:16.575Z,9.40
2023-03-20T02:45:07.027Z,9.40
2023-03-20T02:47:51.841Z,9.40
2023-03-20T02:50:28.818Z,9.40
2023-03-20T02:53:06.596Z,9.30
2023-03-20T02:55:45.063Z,9.30
2023-03-20T02:58:44.560Z,9.30
2023-03-20T03:01:44.132Z,9.20
2023-03-20T03:04:27.254Z,9.20
2023-03-20T03:06:56.234Z,9.20
2023-03-20T03:09:32.172Z,9.20
2023-03-20T03:12:15.540Z,9.20
2023-03-20T03:14:52.251Z,9.30
2023-03-20T03:17:22.936Z,9.40
2023-03-20T03:19:53.020Z,9.50
2023-03-20T03:22:21.145Z,9.60
2023-03-20T03:24:51.321Z,9.60
2023-03-20T03:27:41.291Z,9.70
2023-03-20T03:30:17.766Z,9.70
2023-03-20T03:33:22.561Z,9.70
2023-03-20T03:35:49.837Z,9.70
2023-03-20T03:38:47.091Z,9.70
2023-03-20T03:41:27.262Z,9.70
2023-03-20T03:44:06.787Z,9.60
2023-03-20T03:46:51.533Z,9.60
2023-03-20T03:49:26.723Z,9.70
2023-03-20T03:52:01.954Z,9.70
2023-03-20T03:54:38.141Z,9.70
2023-03-20T03:57:07.806Z,9.70
2023-03-20T03:59:41.537Z,9.70
2023-03-20T04:02:09.220Z,9.70
2023-03-20T04:04:38.813Z,9.60
2023-03-20T04:07:05.963Z,9.60
2023-03-20T04:09:34.941Z,9.60
2023-03-20T04:12:01.741Z,9.60
2023-03-20T04:14:28.481Z,9.60
2023-03-20T04:16:55.255Z,9.60
2023-03-20T04:19:21.968Z,9.60
2023-03-20T04:21:48.590Z,9.50
2023-03-20T04:24:15.380Z,9.50
2023-03-20T04:26:42.446Z,9.40
2023-03-20T04:29:09.082Z,9.40
2023-03-20T04:31:35.922Z,9.40
2023-03-20T04:34:04.962Z,9.30
2023-03-20T04:36:31.603Z,9.30
2023-03-20T04:38:58.313Z,9.20
2023-03-20T04:41:25.132Z,9.20
2023-03-20T04:43:51.810Z,9.20
2023-03-20T04:46:18.888Z,9.10
2023-03-20T04:48:45.661Z,9.10
2023-03-20T04:51:12.280Z,9.10
2023-03-20T04:53:38.946Z,9.10
2023-03-20T04:56:06.174Z,9.20
2023-03-20T04:58:33.288Z,9.10
2023-03-20T05:01:00.188Z,9.10
2023-03-20T05:03:27.613Z,9.10
2023-03-20T05:05:54.350Z,9.10
2023-03-20T05:08:21.047Z,9.10
2023-03-20T05:10:47.815Z,9.10
2023-03-20T05:13:14.475Z,9.10
2023-03-20T05:15:41.110Z,9.10
2023-03-20T05:18:08.143Z,9.20
2023-03-20T05:20:36.995Z,9.20
2023-03-20T05:23:06.553Z,9.20
2023-03-20T05:25:33.750Z,9.20
2023-03-20T05:28:00.917Z,9.20
2023-03-20T05:30:28.020Z,9.20
2023-03-20T05:32:54.717Z,9.20
2023-03-20T05:35:23.869Z,9.30
2023-03-20T05:37:50.702Z,9.30
2023-03-20T05:40:19.215Z,9.40
2023-03-20T05:42:48.748Z,9.40
2023-03-20T05:45:15.663Z,9.40
2023-03-20T05:47:42.308Z,9.50
2023-03-20T05:50:12.119Z,9.40
2023-03-20T05:52:41.077Z,9.40
2023-03-20T05:55:08.204Z,9.40
2023-03-20T05:57:34.900Z,9.50
2023-03-20T06:00:05.472Z,9.50
2023-03-20T06:02:32.486Z,9.50
2023-03-20T06:04:59.197Z,9.50
2023-03-20T06:07:26.036Z,9.50
2023-03-20T06:09:52.693Z,9.50
2023-03-20T06:12:19.365Z,9.50
2023-03-20T06:14:48.248Z,9.50
2023-03-20T06:17:15.263Z,9.50
2023-03-20T06:19:44.077Z,9.60
2023-03-20T06:22:10.708Z,9.60
2023-03-20T06:24:38.182Z,9.60
2023-03-20T06:27:04.882Z,9.60
2023-03-20T06:29:31.638Z,9.60
2023-03-20T06:31:58.335Z,9.70
2023-03-20T06:34:27.647Z,9.70
2023-03-20T06:36:54.364Z,9.70
2023-03-20T06:39:21.128Z,9.70
2023-03-20T06:41:52.486Z,9.70
2023-03-20T06:44:19.265Z,9.80
2023-03-20T06:46:48.188Z,9.70
2023-03-20T06:49:14.952Z,9.70
2023-03-20T06:51:43.879Z,9.70
2023-03-20T06:54:10.764Z,9.80
2023-03-20T06:56:37.470Z,9.80
2023-03-20T06:59:04.167Z,9.80
2023-03-20T07:01:31.177Z,9.80
2023-03-20T07:03:57.884Z,9.80
2023-03-20T07:06:24.543Z,9.80
2023-03-20T07:08:52.881Z,9.80
2023-03-20T07:11:19.588Z,9.70
2023-03-20T07:13:49.306Z,9.70
2023-03-20T07:16:17.112Z,9.70
2023-03-20T07:18:43.806Z,9.70
2023-03-20T07:21:20.246Z,9.70
2023-03-20T07:23:47.539Z,9.70
2023-03-20T07:26:14.365Z,9.70
2023-03-20T07:28:40.972Z,9.70
2023-03-20T07:31:07.787Z,9.70
2023-03-20T07:33:36.935Z,9.70
2023-03-20T07:36:06.908Z,9.70
2023-03-20T07:38:33.591Z,9.70
2023-03-20T07:41:00.295Z,9.70
2023-03-20T07:43:26.955Z,9.70
2023-03-20T07:45:53.647Z,9.70
2023-03-20T07:48:20.377Z,9.70
2023-03-20T07:50:47.118Z,9.70
2023-03-20T07:53:13.810Z,9.70
2023-03-20T07:55:40.667Z,9.70
2023-03-20T07:58:08.851Z,9.70
2023-03-20T08:00:36.345Z,9.70
2023-03-20T08:03:03.532Z,9.70
2023-03-20T08:05:30.450Z,9.70
2023-03-20T08:07:59.929Z,9.70
2023-03-20T08:10:27.281Z,9.70
2023-03-20T08:12:53.979Z,9.70
2023-03-20T08:15:20.670Z,9.70
2023-03-20T08:17:47.672Z,9.70
2023-03-20T08:20:16.827Z,9.70
2023-03-20T08:22:46.803Z,9.70
2023-03-20T08:25:16.446Z,9.70
2023-03-20T08:27:45.712Z,9.70
2023-03-20T08:30:14.011Z,9.70
2023-03-20T08:32:41.122Z,9.70
2023-03-20T08:35:25.792Z,9.80
2023-03-20T08:37:56.657Z,9.80
2023-03-20T08:40:23.473Z,9.90
2023-03-20T08:42:52.284Z,9.90
2023-03-20T08:45:21.761Z,10.00
2023-03-20T08:47:51.670Z,10.00
2023-03-20T08:50:18.979Z,10.00
2023-03-20T08:52:46.990Z,10.00
2023-03-20T08:55:14.811Z,10.10
2023-03-20T08:57:41.982Z,10.10
2023-03-20T09:00:13.792Z,10.10
2023-03-20T09:02:41.227Z,10.10
2023-03-20T09:05:09.195Z,10.10
2023-03-20T09:07:36.954Z,10.20
2023-03-20T09:10:05.281Z,10.20
2023-03-20T09:12:32.753Z,10.20
2023-03-20T09:14:59.780Z,10.20
2023-03-20T09:17:26.430Z,10.20
2023-03-20T09:19:53.179Z,10.30
2023-03-20T09:22:22.040Z,10.30
2023-03-20T09:24:48.728Z,10.30
2023-03-20T09:27:16.338Z,10.30
2023-03-20T09:29:43.616Z,10.30
2023-03-20T09:32:14.931Z,10.50
2023-03-20T09:34:41.976Z,10.70
2023-03-20T09:37:10.953Z,10.80
2023-03-20T09:39:38.199Z,11.00
2023-03-20T09:42:44.286Z,11.10
2023-03-20T09:45:46.395Z,11.20
2023-03-20T09:48:48.056Z,11.20
2023-03-20T09:51:38.382Z,11.50
2023-03-20T09:54:21.605Z,11.70
2023-03-20T09:56:52.371Z,11.80
2023-03-20T09:59:20.726Z,11.90
2023-03-20T10:02:07.158Z,12.10
2023-03-20T10:04:36.908Z,12.30
2023-03-20T10:07:10.796Z,12.60
2023-03-20T10:09:37.358Z,12.90
2023-03-20T10:12:52.274Z,13.20
2023-03-20T10:15:39.376Z,13.50
2023-03-20T10:18:13.951Z,13.50
2023-03-20T10:20:56.163Z,13.40
2023-03-20T10:23:28.591Z,13.20
2023-03-20T10:26:03.089Z,13.20
2023-03-20T10:28:43.182Z,13.00
2023-03-20T10:31:35.983Z,13.00
2023-03-20T10:34:23.176Z,13.20
2023-03-20T10:36:56.758Z,13.40
2023-03-20T10:39:50.422Z,13.40
2023-03-20T10:42:23.777Z,13.40
2023-03-20T10:44:58.611Z,13.40
2023-03-20T10:47:30.394Z,13.80
2023-03-20T10:50:02.829Z,14.10
2023-03-20T10:52:32.990Z,14.30
2023-03-20T10:55:12.921Z,14.50
2023-03-20T10:57:50.346Z,14.50
2023-03-20T11:00:22.453Z,14.60
2023-03-20T11:02:49.572Z,14.70
2023-03-20T11:05:36.868Z,14.80
2023-03-20T11:08:06.067Z,14.80
2023-03-20T11:10:37.469Z,15.20
2023-03-20T11:13:30.117Z,15.40
2023-03-20T11:15:57.287Z,15.30
2023-03-20T11:18:27.397Z,15.40
2023-03-20T11:20:58.360Z,15.70
2023-03-20T11:23:28.306Z,15.90
2023-03-20T11:26:07.718Z,15.70
2023-03-20T11:28:48.812Z,15.50
2023-03-20T11:31:24.723Z,15.20
2023-03-20T11:34:00.217Z,15.00
2023-03-20T11:36:33.106Z,14.70
2023-03-20T11:39:22.503Z,14.50
2023-03-20T11:41:57.218Z,14.40
2023-03-20T11:44:28.246Z,14.40
2023-03-20T11:47:14.588Z,14.40
2023-03-20T11:49:59.239Z,14.60
2023-03-20T11:52:38.648Z,14.80
2023-03-20T11:55:22.792Z,15.00
2023-03-20T11:57:49.611Z,15.10
2023-03-20T12:00:24.185Z,15.00
2023-03-20T12:02:51.526Z,15.10
2023-03-20T12:05:36.600Z,14.90
2023-03-20T12:08:09.608Z,14.90
2023-03-20T12:10:44.516Z,14.80
2023-03-20T12:13:20.132Z,14.80
2023-03-20T12:15:50.898Z,14.90
2023-03-20T12:18:32.128Z,14.80
2023-03-20T12:21:11.887Z,14.80
2023-03-20T12:23:47.612Z,14.80
2023-03-20T12:26:24.279Z,14.80
2023-03-20T12:28:57.854Z,14.70
2023-03-20T12:31:43.826Z,14.40
2023-03-20T12:34:20.740Z,14.40
2023-03-20T12:36:53.078Z,14.30
2023-03-20T12:39:25.139Z,14.40
2023-03-20T12:41:57.678Z,14.50
2023-03-20T12:44:46.603Z,14.70
2023-03-20T12:47:17.150Z,15.00
2023-03-20T12:49:52.555Z,14.90
2023-03-20T12:52:24.881Z,14.70
2023-03-20T12:55:13.171Z,14.70
2023-03-20T12:58:09.183Z,14.80
2023-03-20T13:01:09.558Z,14.90
2023-03-20T13:03:58.539Z,15.00
2023-03-20T13:06:47.541Z,15.00
2023-03-20T13:09:44.685Z,15.00
2023-03-20T13:12:36.547Z,14.90
2023-03-20T13:15:26.050Z,14.90
2023-03-20T13:18:07.096Z,14.90
2023-03-20T13:20:38.930Z,15.00
2023-03-20T13:23:20.573Z,15.10
2023-03-20T13:25:58.669Z,15.00
2023-03-20T13:29:03.148Z,14.90
2023-03-20T13:31:54.204Z,14.70
2023-03-20T13:34:52.893Z,14.70
2023-03-20T13:37:33.337Z,14.60
2023-03-20T13:40:06.151Z,14.50
2023-03-20T13:42:43.002Z,14.50
2023-03-20T13:45:41.845Z,14.50
2023-03-20T13:48:23.179Z,14.40
2023-03-20T13:51:27.098Z,14.30
2023-03-20T13:54:19.073Z,14.30
2023-03-20T13:57:06.239Z,14.40
2023-03-20T13:59:52.898Z,14.50
2023-03-20T14:02:33.796Z,14.50
2023-03-20T14:05:23.016Z,14.30
2023-03-20T14:07:56.009Z,14.20
2023-03-20T14:10:22.898Z,14.10
2023-03-20T14:12:50.767Z,14.00
2023-03-20T14:15:19.885Z,14.00
2023-03-20T14:17:52.058Z,14.00
2023-03-20T14:20:33.820Z,13.90
2023-03-20T14:23:01.883Z,13.80
2023-03-20T14:25:38.697Z,13.80
2023-03-20T14:28:06.970Z,13.80
2023-03-20T14:30:44.875Z,13.80
2023-03-20T14:33:17.836Z,13.80
2023-03-20T14:35:49.605Z,13.70
2023-03-20T14:38:51.397Z,13.60
2023-03-20T14:41:33.758Z,13.50
2023-03-20T14:44:03.622Z,13.50
2023-03-20T14:46:43.301Z,13.50
2023-03-20T14:49:28.808Z,13.40
2023-03-20T14:52:10.873Z,13.30
2023-03-20T14:54:41.427Z,13.20
2023-03-20T14:57:10.679Z,13.20
2023-03-20T14:59:38.052Z,13.10
2023-03-20T15:02:07.185Z,13.20
2023-03-20T15:04:42.607Z,13.10
2023-03-20T15:07:27.701Z,13.10
2023-03-20T15:10:00.742Z,13.00
2023-03-20T15:12:31.301Z,13.00
2023-03-20T15:14:59.626Z,13.00
2023-03-20T15:17:58.483Z,13.10
2023-03-20T15:20:29.313Z,13.10
2023-03-20T15:22:58.524Z,13.00
2023-03-20T15:25:39.918Z,12.90
2023-03-20T15:28:20.034Z,12.90
2023-03-20T15:30:49.524Z,12.90
2023-03-20T15:33:41.818Z,12.80
2023-03-20T15:36:11.354Z,12.80
2023-03-20T15:38:41.594Z,12.80
2023-03-20T15:41:28.339Z,12.70
2023-03-20T15:44:12.021Z,12.70
2023-03-20T15:46:38.755Z,12.60
2023-03-20T15:49:08.080Z,12.50
2023-03-20T15:51:36.027Z,12.50
2023-03-20T15:54:07.816Z,12.50
2023-03-20T15:56:35.914Z,12.50
2023-03-20T15:59:07.497Z,12.50
2023-03-20T16:01:34.935Z,12.40
2023-03-20T16:04:01.642Z,12.50
2023-03-20T16:06:30.804Z,12.50
2023-03-20T16:08:58.546Z,12.40
2023-03-20T16:11:25.728Z,12.40
2023-03-20T16:13:53.738Z,12.40
2023-03-20T16:16:26.626Z,12.40
2023-03-20T16:18:53.370Z,12.40
2023-03-20T16:21:33.186Z,12.40
2023-03-20T16:24:01.459Z,12.40
2023-03-20T16:26:28.446Z,12.40
2023-03-20T16:28:58.613Z,12.40
2023-03-20T16:31:34.545Z,12.40
2023-03-20T16:34:07.322Z,12.40
2023-03-20T16:36:37.923Z,12.40
2023-03-20T16:39:09.753Z,12.40
2023-03-20T16:41:43.407Z,12.30
2023-03-20T16:44:27.258Z,12.30
2023-03-20T16:46:57.180Z,12.20
2023-03-20T16:49:32.051Z,12.20
2023-03-20T16:52:01.869Z,12.20
2023-03-20T16:54:36.071Z,12.20
2023-03-20T16:57:05.603Z,12.20
2023-03-20T16:59:32.376Z,12.20
2023-03-20T17:01:59.970Z,12.10
2023-03-20T17:04:41.471Z,12.10
2023-03-20T17:07:17.897Z,12.10
2023-03-20T17:10:11.993Z,12.10
2023-03-20T17:12:40.785Z,12.10
2023-03-20T17:15:08.031Z,12.10
2023-03-20T17:17:34.906Z,12.00
2023-03-20T17:20:01.597Z,12.00
2023-03-20T17:22:34.256Z,12.00
2023-03-20T17:25:03.689Z,12.00
2023-03-20T17:27:30.717Z,11.90
2023-03-20T17:29:59.822Z,11.90
2023-03-20T17:32:26.660Z,11.80
2023-03-20T17:34:53.327Z,11.80
2023-03-20T17:37:29.879Z,11.80
2023-03-20T17:40:02.299Z,11.80
2023-03-20T17:42:32.035Z,11.80
2023-03-20T17:44:59.872Z,11.80
2023-03-20T17:47:28.245Z,11.70
2023-03-20T17:49:58.122Z,11.70
2023-03-20T17:52:27.635Z,11.70
2023-03-20T17:54:54.868Z,11.70
2023-03-20T17:57:27.918Z,11.70
2023-03-20T17:59:54.585Z,11.70
2023-03-20T18:02:21.276Z,11.60
2023-03-20T18:04:48.964Z,11.60
2023-03-20T18:07:17.419Z,11.60
2023-03-20T18:09:44.832Z,11.60
2023-03-20T18:12:15.639Z,11.60
2023-03-20T18:14:43.007Z,11.60
2023-03-20T18:17:12.514Z,11.50
2023-03-20T18:19:39.309Z,11.50
2023-03-20T18:22:06.945Z,11.50
2023-03-20T18:24:33.982Z,11.40
2023-03-20T18:27:00.935Z,11.40
2023-03-20T18:29:28.298Z,11.40
2023-03-20T18:31:55.300Z,11.40
2023-03-20T18:34:22.083Z,11.30
2023-03-20T18:36:48.743Z,11.30
2023-03-20T18:39:20.269Z,11.30
2023-03-20T18:41:47.329Z,11.30
2023-03-20T18:44:14.305Z,11.30
2023-03-20T18:46:41.732Z,11.30
2023-03-20T18:49:15.190Z,11.30
2023-03-20T18:51:44.475Z,11.30
2023-03-20T18:54:11.514Z,11.30
2023-03-20T18:56:38.311Z,11.30
2023-03-20T18:59:08.203Z,11.30
2023-03-20T19:01:35.881Z,11.30
2023-03-20T19:04:03.160Z,11.20
2023-03-20T19:06:32.565Z,11.20
2023-03-20T19:09:02.782Z,11.30
2023-03-20T19:11:29.441Z,11.30
2023-03-20T19:13:56.218Z,11.20
2023-03-20T19:16:31.826Z,11.20
2023-03-20T19:19:03.197Z,11.20
2023-03-20T19:21:31.792Z,11.10
2023-03-20T19:24:01.087Z,11.10
2023-03-20T19:26:30.212Z,11.10
2023-03-20T19:28:58.757Z,11.10
2023-03-20T19:31:28.539Z,11.10
2023-03-20T19:33:56.725Z,11.10
2023-03-20T19:36:30.594Z,11.10
2023-03-20T19:38:57.976Z,11.00
2023-03-20T19:41:25.416Z,11.00
2023-03-20T19:43:55.356Z,11.00
2023-03-20T19:46:41.162Z,11.00
2023-03-20T19:49:20.406Z,11.00
2023-03-20T19:51:48.491Z,11.00
2023-03-20T19:54:15.606Z,11.00
2023-03-20T19:56:44.497Z,11.00
2023-03-20T19:59:16.392Z,11.00
2023-03-20T20:01:45.187Z,10.90
2023-03-20T20:04:12.258Z,10.90
2023-03-20T20:06:39.865Z,10.90
2023-03-20T20:09:07.109Z,10.90
2023-03-20T20:11:33.801Z,10.90
2023-03-20T20:14:09.719Z,10.90
2023-03-20T20:16:39.420Z,10.90
2023-03-20T20:19:11.019Z,10.90
2023-03-20T20:24:24.850Z,11.00
2023-03-20T20:26:56.684Z,11.00
2023-03-20T20:29:30.132Z,11.00
2023-03-20T20:31:57.108Z,11.00
2023-03-20T20:35:22.427Z,10.90
2023-03-20T20:38:09.077Z,10.80
2023-03-20T20:40:01.250Z,10.80
2023-03-20T20:42:28.271Z,10.80
2023-03-20T20:44:55.108Z,10.70
2023-03-20T20:47:21.983Z,10.70
2023-03-20T20:49:49.259Z,10.60
2023-03-20T20:52:16.401Z,10.60
2023-03-20T20:54:43.651Z,10.60
2023-03-20T20:57:11.916Z,10.50
2023-03-20T20:59:40.563Z,10.50
2023-03-20T21:02:12.577Z,10.40
2023-03-20T21:04:44.103Z,10.40
2023-03-20T21:07:13.024Z,10.40
2023-03-20T21:09:40.936Z,10.40
2023-03-20T21:12:10.479Z,10.40
2023-03-20T21:14:37.508Z,10.40
2023-03-20T21:17:06.076Z,10.40
2023-03-20T21:19:38.571Z,10.40
2023-03-20T21:22:09.852Z,10.50
2023-03-20T21:24:37.000Z,10.50
2023-03-20T21:27:06.806Z,10.50
2023-03-20T21:29:34.326Z,10.50
2023-03-20T21:32:01.326Z,10.50
2023-03-20T21:34:29.060Z,10.50
2023-03-20T21:36:57.445Z,10.60
2023-03-20T21:39:28.560Z,10.60
2023-03-20T21:41:55.266Z,10.60
2023-03-20T21:45:01.059Z,10.50
2023-03-20T21:48:04.019Z,10.50
2023-03-20T21:53:20.109Z,10.50
2023-03-20T22:01:53.977Z,10.60
2023-03-20T22:07:28.822Z,10.50
2023-03-20T22:10:28.795Z,10.60
2023-03-20T22:15:42.419Z,10.50
2023-03-20T22:18:59.992Z,10.40
2023-03-20T22:29:44.082Z,10.40
2023-03-20T22:32:47.251Z,10.40
2023-03-20T22:38:08.946Z,10.40
2023-03-20T22:46:05.483Z,10.40
2023-03-20T22:48:34.821Z,10.40
2023-03-20T22:51:07.005Z,10.40
2023-03-20T22:53:34.277Z,10.40
2023-03-20T22:56:01.033Z,10.40
2023-03-20T22:58:27.698Z,10.30
2023-03-20T23:00:57.026Z,10.30
2023-03-20T23:03:38.096Z,10.30
2023-03-20T23:06:17.533Z,10.40
2023-03-20T23:08:50.841Z,10.30
2023-03-20T23:11:23.006Z,10.30
2023-03-20T23:13:52.473Z,10.30
2023-03-20T23:16:20.046Z,10.30
2023-03-20T23:18:46.749Z,10.30
2023-03-20T23:21:13.453Z,10.30
2023-03-20T23:23:40.654Z,10.30
2023-03-20T23:26:14.241Z,10.30
2023-03-20T23:28:42.510Z,10.30
2023-03-20T23:31:12.607Z,10.30
2023-03-20T23:33:39.678Z,10.20
2023-03-20T23:36:18.592Z,10.20
2023-03-20T23:38:54.041Z,10.20
2023-03-20T23:41:28.212Z,10.10
2023-03-20T23:44:03.929Z,10.10
2023-03-20T23:46:30.645Z,10.10
2023-03-20T23:48:57.267Z,10.10
2023-03-20T23:51:23.948Z,10.10
2023-03-20T23:53:53.031Z,10.10
2023-03-20T23:56:19.834Z,10.10
2023-03-20T23:58:58.263Z,10.10
